Time;durP1;ratioP1;P1;durP2;ratioP2;P2;SDS_P1;SDS_P2;PMS_P1;PMS_P2;Temp;Humidity;BMP_temperature;BMP_pressure;BME280_temperature;BME280_humidity;BME280_pressure;Samples;Min_cycle;Max_cycle;Signal;HPM_P1;HPM_P2
2022/08/29 00:00:22;;;;;;;16.42;6.78;;;;;;;16.83;88.69;100273.54;2170051;80;21460;-69
2022/08/29 00:03:23;;;;;;;11.35;6.50;;;;;;;16.75;88.67;100267.82;2188129;80;20959;-68
2022/08/29 00:06:25;;;;;;;14.93;6.40;;;;;;;16.65;88.65;100273.59;2193666;80;21082;-69
2022/08/29 00:09:28;;;;;;;18.70;7.00;;;;;;;16.61;88.80;100274.17;2197144;80;21019;-69
2022/08/29 00:12:31;;;;;;;17.90;7.15;;;;;;;16.55;88.78;100275.30;2190311;80;21098;-69
2022/08/29 00:15:33;;;;;;;10.93;6.78;;;;;;;16.49;88.76;100277.96;2195455;80;21037;-69
2022/08/29 00:18:38;;;;;;;17.20;6.53;;;;;;;16.42;88.88;100275.80;2191896;80;20962;-68
2022/08/29 00:21:38;;;;;;;12.93;6.75;;;;;;;16.38;89.09;100278.55;2192177;79;21062;-68
2022/08/29 00:24:39;;;;;;;15.10;7.40;;;;;;;16.31;88.95;100280.69;2194446;80;21026;-68
2022/08/29 00:27:40;;;;;;;13.98;6.90;;;;;;;16.26;89.06;100283.14;2194101;80;20982;-68
2022/08/29 00:30:42;;;;;;;12.53;6.92;;;;;;;16.19;89.03;100285.47;2188391;80;21014;-69
2022/08/29 00:33:43;;;;;;;21.87;7.08;;;;;;;16.11;89.08;100293.17;2198539;80;21090;-69
2022/08/29 00:36:44;;;;;;;18.42;7.37;;;;;;;16.06;89.31;100288.92;2194239;80;21007;-72
2022/08/29 00:39:45;;;;;;;14.55;7.58;;;;;;;16.00;89.25;100299.09;2190560;79;21046;-70
2022/08/29 00:42:46;;;;;;;15.08;7.15;;;;;;;15.95;89.44;100296.17;2189174;80;21461;-68
2022/08/29 00:46:01;;;;;;;16.82;7.47;;;;;;;15.90;89.50;100306.11;2189340;80;20972;-68
2022/08/29 00:49:15;;;;;;;18.90;7.72;;;;;;;15.85;89.57;100305.88;2191812;79;21514;-69
2022/08/29 00:52:33;;;;;;;22.15;7.42;;;;;;;15.80;89.69;100305.66;2193372;80;21439;-68
2022/08/29 00:55:36;;;;;;;;;;;;;;;15.77;89.68;100306.03;2170469;80;20994;-69
2022/08/29 00:58:51;;;;;;;13.75;7.90;;;;;;;15.72;89.87;100306.62;2194662;80;20161;-71
2022/08/29 01:01:52;;;;;;;17.80;7.95;;;;;;;15.68;89.89;100300.86;2189637;80;21018;-68
2022/08/29 01:04:53;;;;;;;21.07;8.25;;;;;;;15.67;89.96;100307.17;2194027;80;21041;-68
2022/08/29 01:07:55;;;;;;;22.27;7.95;;;;;;;15.64;89.83;100309.42;2189162;80;21045;-68
2022/08/29 01:14:19;;;;;;;22.17;8.00;;;;;;;15.52;89.86;100302.45;2191991;80;21016;-68
2022/08/29 01:17:28;;;;;;;12.85;7.60;;;;;;;15.45;90.01;100300.22;2190857;80;21465;-69
2022/08/29 01:20:53;;;;;;;14.73;8.03;;;;;;;15.39;90.10;100304.50;2193834;80;21057;-69
2022/08/29 01:24:26;;;;;;;12.60;8.20;;;;;;;15.36;90.32;100301.39;2189607;80;21073;-71
2022/08/29 01:27:33;;;;;;;12.93;7.47;;;;;;;15.27;90.23;100303.90;2190885;79;21434;-69
2022/08/29 01:30:34;;;;;;;12.98;8.53;;;;;;;15.23;90.37;100300.28;2193959;80;21046;-69
2022/08/29 01:33:46;;;;;;;21.65;8.43;;;;;;;15.21;90.46;100304.16;2193971;80;20966;-69
2022/08/29 01:36:59;;;;;;;18.42;7.90;;;;;;;15.16;90.38;100303.39;2194714;79;21428;-72
2022/08/29 01:40:03;;;;;;;23.90;7.97;;;;;;;15.12;90.46;100298.61;2190373;80;20983;-68
2022/08/29 01:43:03;;;;;;;13.00;7.83;;;;;;;15.07;90.45;100299.20;2194099;80;21078;-69
2022/08/29 01:46:04;;;;;;;14.03;7.70;;;;;;;15.07;90.53;100309.89;2197556;80;20991;-68
2022/08/29 01:49:10;;;;;;;20.68;8.33;;;;;;;15.03;90.49;100305.93;2169477;80;21496;-68
2022/08/29 01:52:11;;;;;;;18.95;7.97;;;;;;;14.98;90.61;100313.20;2192453;80;21034;-69
2022/08/29 01:55:12;;;;;;;23.20;8.50;;;;;;;14.94;90.71;100304.41;2195093;80;21018;-69
2022/08/29 01:58:15;;;;;;;19.17;8.48;;;;;;;14.88;90.75;100311.86;2190345;80;20979;-68
2022/08/29 02:01:20;;;;;;;16.00;7.95;;;;;;;14.84;90.80;100310.56;2199642;80;21068;-68
2022/08/29 02:04:24;;;;;;;18.42;8.28;;;;;;;14.80;90.91;100308.28;2166870;80;21034;-68
2022/08/29 02:07:26;;;;;;;18.55;8.08;;;;;;;14.77;91.09;100310.50;2199343;80;20999;-70
2022/08/29 02:10:27;;;;;;;17.80;8.55;;;;;;;14.74;91.22;100319.72;2199625;80;20986;-68
2022/08/29 02:13:30;;;;;;;15.20;8.03;;;;;;;14.73;91.28;100314.59;2198529;79;21005;-68
2022/08/29 02:16:32;;;;;;;19.00;8.23;;;;;;;14.71;91.28;100316.09;2189012;80;20963;-68
2022/08/29 02:19:34;;;;;;;18.32;7.83;;;;;;;14.69;91.37;100315.45;2192113;80;21055;-69
2022/08/29 02:22:38;;;;;;;14.47;7.97;;;;;;;14.68;91.30;100315.14;2196022;80;21021;-68
2022/08/29 02:25:42;;;;;;;16.12;8.10;;;;;;;14.67;91.32;100312.64;2198027;80;21540;-68
2022/08/29 02:28:46;;;;;;;19.95;7.97;;;;;;;14.68;91.33;100315.66;2193009;80;21481;-69
2022/08/29 02:31:48;;;;;;;19.95;8.95;;;;;;;14.66;91.33;100318.50;2191725;79;21077;-68
2022/08/29 02:34:49;;;;;;;18.65;8.25;;;;;;;14.64;91.21;100315.21;2192008;80;20974;-68
2022/08/29 02:37:51;;;;;;;16.32;7.92;;;;;;;14.61;91.25;100318.23;2190911;80;21007;-70
2022/08/29 02:40:52;;;;;;;17.02;7.70;;;;;;;14.62;91.24;100316.41;2165227;80;20982;-69
2022/08/29 02:43:53;;;;;;;13.40;6.83;;;;;;;14.60;91.12;100319.26;2194506;80;21073;-68
2022/08/29 02:46:55;;;;;;;13.75;8.03;;;;;;;14.57;90.99;100320.97;2190558;80;20994;-69
2022/08/29 02:49:55;;;;;;;15.65;7.40;;;;;;;14.53;90.97;100326.38;2196336;79;21090;-68
2022/08/29 02:52:57;;;;;;;16.95;7.70;;;;;;;14.51;90.96;100327.03;2184726;80;21004;-72
2022/08/29 02:55:58;;;;;;;20.50;7.65;;;;;;;14.37;90.83;100303.86;2194210;80;21082;-68
2022/08/29 02:59:01;;;;;;;19.70;8.40;;;;;;;14.43;90.88;100327.14;2197948;80;20977;-68
2022/08/29 03:02:03;;;;;;;12.35;7.97;;;;;;;14.37;90.93;100338.56;2188216;80;20951;-69
2022/08/29 03:05:05;;;;;;;14.65;7.75;;;;;;;14.35;91.18;100343.56;2193068;79;21449;-69
2022/08/29 03:08:17;;;;;;;14.45;8.48;;;;;;;14.32;91.05;100342.61;2193916;80;21491;-69
2022/08/29 03:11:20;;;;;;;18.87;8.05;;;;;;;14.28;91.23;100334.66;2195171;80;21502;-68
2022/08/29 03:14:23;;;;;;;17.10;8.15;;;;;;;14.25;91.21;100331.03;2195751;80;20963;-69
2022/08/29 03:17:23;;;;;;;15.93;9.03;;;;;;;14.27;91.53;100336.98;2193551;80;20978;-68
2022/08/29 03:20:25;;;;;;;18.70;8.00;;;;;;;14.33;91.90;100338.09;2197891;80;21450;-69
2022/08/29 03:23:26;;;;;;;19.57;9.03;;;;;;;14.35;91.72;100341.41;2198237;79;21061;-69
2022/08/29 03:26:27;;;;;;;14.30;8.18;;;;;;;14.35;91.73;100340.89;2186509;80;20978;-68
2022/08/29 03:29:28;;;;;;;21.02;8.48;;;;;;;14.31;91.52;100337.47;2197286;80;21016;-68
2022/08/29 03:32:30;;;;;;;29.05;9.18;;;;;;;14.29;91.62;100340.31;2197618;80;21488;-70
2022/08/29 03:35:31;;;;;;;16.67;8.98;;;;;;;14.30;91.72;100342.47;2196201;80;21014;-68
2022/08/29 03:38:34;;;;;;;15.72;8.53;;;;;;;14.30;91.67;100348.66;2195943;80;21564;-69
2022/08/29 03:41:35;;;;;;;12.00;8.05;;;;;;;14.31;91.66;100350.30;2195096;80;21092;-68
2022/08/29 03:44:39;;;;;;;16.90;7.40;;;;;;;14.30;91.52;100347.32;2198254;79;20935;-69
2022/08/29 03:47:41;;;;;;;16.00;8.90;;;;;;;14.27;91.54;100349.00;2197363;79;21478;-68
2022/08/29 03:50:42;;;;;;;18.42;8.43;;;;;;;14.23;91.43;100349.58;2192133;80;21432;-68
2022/08/29 03:53:44;;;;;;;16.35;8.23;;;;;;;14.19;91.53;100353.13;2192912;80;20971;-68
2022/08/29 03:56:46;;;;;;;19.90;7.95;;;;;;;14.15;91.60;100351.82;2193053;80;21021;-69
2022/08/29 03:59:47;;;;;;;15.40;9.20;;;;;;;14.15;91.90;100354.48;2191847;80;21577;-69
2022/08/29 04:02:49;;;;;;;15.00;9.25;;;;;;;14.12;92.02;100360.20;2192960;80;21061;-69
2022/08/29 04:05:50;;;;;;;17.77;9.38;;;;;;;14.12;92.07;100362.87;2195861;80;21016;-69
2022/08/29 04:08:52;;;;;;;13.38;8.68;;;;;;;14.10;92.10;100352.36;2192751;80;21064;-68
2022/08/29 04:11:53;;;;;;;19.42;8.55;;;;;;;14.10;92.01;100358.21;2194859;80;20982;-70
2022/08/29 04:14:54;;;;;;;14.43;9.03;;;;;;;14.12;92.17;100358.86;2195795;80;21089;-69
2022/08/29 04:17:59;;;;;;;15.40;8.65;;;;;;;14.12;92.19;100360.20;2198618;80;21013;-67
2022/08/29 04:21:01;;;;;;;18.92;10.03;;;;;;;14.15;92.31;100367.02;2196731;80;20994;-68
2022/08/29 04:24:02;;;;;;;14.55;8.75;;;;;;;14.17;92.28;100371.66;2189325;80;21509;-68
2022/08/29 04:27:04;;;;;;;17.87;8.45;;;;;;;14.22;92.39;100371.44;2169692;80;21072;-68
2022/08/29 04:30:11;;;;;;;15.55;8.75;;;;;;;14.37;92.59;100374.60;2195525;79;21473;-68
2022/08/29 04:33:12;;;;;;;15.78;9.00;;;;;;;14.48;92.33;100377.62;2154275;82;20971;-72
2022/08/29 04:36:13;;;;;;;15.38;7.62;;;;;;;14.63;92.36;100382.97;2154735;81;20978;-68
2022/08/29 04:39:15;;;;;;;15.43;8.30;;;;;;;14.80;92.07;100379.58;2152661;81;20998;-68
2022/08/29 04:42:18;;;;;;;16.85;7.85;;;;;;;14.98;92.09;100373.83;2137977;81;20981;-69
2022/08/29 04:45:21;;;;;;;14.98;8.08;;;;;;;15.19;91.84;100377.02;2142970;81;21433;-68
2022/08/29 04:48:23;;;;;;;15.63;7.53;;;;;;;15.39;91.42;100377.20;2154781;82;21041;-70
2022/08/29 04:51:24;;;;;;;11.60;6.92;;;;;;;15.59;91.34;100382.72;2142676;81;21026;-68
2022/08/29 04:54:25;;;;;;;15.90;7.72;;;;;;;15.84;90.89;100383.16;2137632;81;21054;-70
2022/08/29 04:57:26;;;;;;;11.45;7.00;;;;;;;16.17;90.92;100390.59;2157947;81;21461;-69
2022/08/29 05:00:28;;;;;;;16.95;7.33;;;;;;;16.49;90.51;100388.59;2151467;81;21043;-71
2022/08/29 05:03:31;;;;;;;12.80;6.58;;;;;;;16.88;90.23;100390.34;2093219;83;21092;-70
2022/08/29 05:06:32;;;;;;;13.70;7.03;;;;;;;17.23;89.50;100399.07;2158869;80;21006;-70
2022/08/29 05:09:33;;;;;;;12.07;7.05;;;;;;;17.58;88.73;100399.75;2122761;82;21543;-70
2022/08/29 05:12:36;;;;;;;14.95;7.20;;;;;;;17.85;87.69;100395.24;2119869;82;21014;-70
2022/08/29 05:15:38;;;;;;;12.60;6.25;;;;;;;18.16;87.15;100407.19;2153274;81;21530;-70
2022/08/29 05:18:43;;;;;;;14.00;6.80;;;;;;;18.46;86.29;100408.84;2132352;81;20980;-72
2022/08/29 05:21:45;;;;;;;10.82;6.87;;;;;;;18.64;85.38;100410.02;2192349;79;20983;-71
2022/08/29 05:24:47;;;;;;;14.20;7.03;;;;;;;18.86;84.81;100407.38;2193412;79;21053;-70
2022/08/29 05:27:49;;;;;;;12.40;6.60;;;;;;;19.16;84.37;100416.23;2197655;79;21112;-70
2022/08/29 05:30:50;;;;;;;10.08;6.55;;;;;;;19.39;83.48;100408.95;2200401;80;20985;-71
2022/08/29 05:33:51;;;;;;;11.50;6.60;;;;;;;19.64;82.57;100419.21;2197116;80;20927;-70
2022/08/29 05:36:52;;;;;;;9.73;5.75;;;;;;;19.92;82.17;100418.80;2191349;79;21022;-70
2022/08/29 05:39:54;;;;;;;12.58;6.00;;;;;;;20.17;81.08;100419.30;2197794;79;21124;-70
2022/08/29 05:42:56;;;;;;;12.60;6.35;;;;;;;20.37;80.76;100420.45;2187051;80;20987;-70
2022/08/29 05:46:06;;;;;;;9.75;5.78;;;;;;;20.66;79.54;100422.12;2196705;80;21065;-71
2022/08/29 05:49:08;;;;;;;13.32;6.33;;;;;;;20.80;78.69;100424.95;2188050;79;20991;-70
2022/08/29 05:52:10;;;;;;;9.75;6.22;;;;;;;20.97;78.02;100421.92;2191789;80;20998;-70
2022/08/29 05:55:11;;;;;;;9.23;5.60;;;;;;;21.21;77.23;100416.64;2195534;80;20951;-73
2022/08/29 05:58:13;;;;;;;16.42;6.28;;;;;;;21.44;76.77;100411.86;2195991;79;21008;-70
2022/08/29 06:01:29;;;;;;;9.73;5.95;;;;;;;21.82;75.92;100412.81;2189144;79;20998;-71
2022/08/29 06:04:30;;;;;;;12.37;5.12;;;;;;;21.99;75.06;100416.14;2194525;80;21098;-70
2022/08/29 06:07:32;;;;;;;17.05;6.55;;;;;;;22.02;73.52;100414.31;2198176;80;20978;-71
2022/08/29 06:10:37;;;;;;;7.42;5.00;;;;;;;22.09;72.90;100422.61;2197234;80;20967;-70
2022/08/29 06:13:38;;;;;;;9.45;5.35;;;;;;;22.32;72.74;100426.38;2193154;80;21023;-70
2022/08/29 06:16:40;;;;;;;12.93;5.65;;;;;;;22.60;72.14;100426.98;2199139;80;20962;-70
2022/08/29 06:19:41;;;;;;;9.45;4.97;;;;;;;22.78;71.50;100433.60;2194366;79;20994;-70
2022/08/29 06:22:42;;;;;;;18.60;5.20;;;;;;;22.97;70.64;100432.09;2201225;80;21012;-71
2022/08/29 06:25:43;;;;;;;13.15;4.62;;;;;;;23.17;69.79;100446.02;2193902;80;21006;-70
2022/08/29 06:28:45;;;;;;;9.25;5.33;;;;;;;23.18;68.76;100448.20;2194386;79;20998;-75
2022/08/29 06:31:46;;;;;;;13.48;5.22;;;;;;;23.35;68.96;100450.95;2194395;79;21058;-70
2022/08/29 06:34:47;;;;;;;12.33;5.35;;;;;;;23.62;68.76;100460.61;2199302;80;21449;-71
2022/08/29 06:37:48;;;;;;;8.43;4.70;;;;;;;23.89;67.22;100460.83;2190174;80;21508;-69
2022/08/29 06:40:49;;;;;;;12.85;5.97;;;;;;;24.00;66.51;100461.28;2194725;79;21428;-71
2022/08/29 06:43:52;;;;;;;11.85;5.40;;;;;;;24.04;66.13;100467.02;2193451;80;20990;-70
2022/08/29 06:46:53;;;;;;;10.78;4.67;;;;;;;24.01;65.52;100471.58;2188151;80;21490;-70
2022/08/29 06:49:54;;;;;;;10.35;4.72;;;;;;;24.29;65.62;100472.82;2199919;79;21005;-69
2022/08/29 06:52:55;;;;;;;13.10;4.60;;;;;;;24.39;64.51;100474.87;2199492;79;21054;-71
2022/08/29 06:55:56;;;;;;;8.98;4.72;;;;;;;24.60;64.62;100482.78;2194602;80;21006;-72
2022/08/29 06:58:57;;;;;;;7.62;3.90;;;;;;;24.77;63.56;100483.54;2193967;80;21050;-71
2022/08/29 07:01:58;;;;;;;10.90;3.87;;;;;;;24.94;63.10;100490.27;2198954;80;21539;-71
2022/08/29 07:04:59;;;;;;;8.15;4.28;;;;;;;25.11;61.90;100485.30;2203628;79;21005;-69
2022/08/29 07:08:03;;;;;;;10.35;4.00;;;;;;;24.92;60.74;100488.88;2198336;80;20975;-70
2022/08/29 07:11:04;;;;;;;7.85;3.83;;;;;;;25.05;61.60;100492.57;2201243;80;21057;-70
2022/08/29 07:14:06;;;;;;;9.75;4.00;;;;;;;25.47;60.78;100490.07;2196729;80;21010;-70
2022/08/29 07:17:07;;;;;;;9.33;4.17;;;;;;;25.43;59.98;100497.65;2189024;80;20982;-69
2022/08/29 07:20:09;;;;;;;7.20;3.95;;;;;;;25.39;58.41;100493.24;2188919;80;21073;-69
2022/08/29 07:23:10;;;;;;;7.28;3.92;;;;;;;25.36;58.12;100496.47;2173020;80;21492;-71
2022/08/29 07:26:28;;;;;;;8.45;3.70;;;;;;;25.45;56.60;100495.47;2187689;80;20944;-69
2022/08/29 07:29:29;;;;;;;11.05;4.30;;;;;;;25.14;56.69;100496.50;2196021;80;20977;-69
2022/08/29 07:32:31;;;;;;;10.38;4.40;;;;;;;25.04;56.89;100499.90;2190246;79;21014;-70
2022/08/29 07:35:32;;;;;;;9.48;4.60;;;;;;;25.18;56.81;100496.83;2188478;80;20975;-70
2022/08/29 07:38:34;;;;;;;7.95;4.17;;;;;;;25.43;56.55;100502.53;2197544;79;20978;-70
2022/08/29 07:41:37;;;;;;;10.03;4.22;;;;;;;25.58;56.75;100509.20;2189090;79;21034;-73
2022/08/29 07:44:38;;;;;;;9.25;4.25;;;;;;;25.57;55.14;100502.14;2196224;79;20971;-73
2022/08/29 07:47:39;;;;;;;6.28;3.62;;;;;;;25.60;55.69;100507.05;2193512;80;21478;-70
2022/08/29 07:50:41;;;;;;;15.20;5.22;;;;;;;25.74;55.31;100507.45;2191755;80;21450;-72
2022/08/29 07:53:44;;;;;;;12.23;3.85;;;;;;;25.77;54.80;100502.31;2195610;79;21053;-70
2022/08/29 07:56:48;;;;;;;8.23;4.00;;;;;;;25.56;53.98;100507.27;2192381;80;21500;-70
2022/08/29 07:59:50;;;;;;;8.83;3.92;;;;;;;25.26;52.88;100507.24;2197552;79;20927;-71
2022/08/29 08:02:51;;;;;;;8.55;3.92;;;;;;;24.84;53.08;100507.80;2194164;79;20980;-70
2022/08/29 08:05:52;;;;;;;9.93;3.83;;;;;;;24.74;53.90;100508.47;2198555;79;21533;-70
2022/08/29 08:08:54;;;;;;;8.78;4.20;;;;;;;24.55;53.14;100505.25;2203711;79;20986;-71
2022/08/29 08:11:56;;;;;;;7.80;3.67;;;;;;;24.51;53.40;100504.63;2200258;80;20977;-69
2022/08/29 08:14:57;;;;;;;10.63;3.55;;;;;;;24.75;53.87;100499.27;2194445;79;21505;-70
2022/08/29 08:17:58;;;;;;;9.03;3.52;;;;;;;25.03;53.27;100511.84;2197032;79;21045;-69
2022/08/29 08:20:59;;;;;;;7.25;3.60;;;;;;;25.18;53.01;100511.22;2193903;79;21021;-70
2022/08/29 08:24:00;;;;;;;11.38;4.62;;;;;;;25.32;51.43;100511.66;2192352;79;21071;-70
2022/08/29 08:27:01;;;;;;;9.75;4.10;;;;;;;25.04;49.31;100512.66;2197947;79;21039;-70
2022/08/29 08:30:03;;;;;;;9.75;3.52;;;;;;;24.78;50.08;100517.77;2191437;80;21057;-70
2022/08/29 08:33:04;;;;;;;8.30;3.90;;;;;;;24.52;49.95;100515.21;2191495;79;21030;-73
2022/08/29 08:36:20;;;;;;;9.63;4.37;;;;;;;24.38;50.16;100516.60;2191310;80;21010;-69
2022/08/29 08:39:21;;;;;;;10.98;4.05;;;;;;;24.47;49.92;100519.23;2177336;80;21013;-69
2022/08/29 08:42:41;;;;;;;11.38;4.42;;;;;;;24.57;50.38;100527.50;2198555;80;21480;-69
2022/08/29 08:45:43;;;;;;;9.53;4.08;;;;;;;24.70;50.35;100531.77;2201392;80;21053;-69
2022/08/29 08:48:48;;;;;;;13.22;4.35;;;;;;;24.80;50.25;100532.42;2189202;80;21468;-71
2022/08/29 08:51:53;;;;;;;7.35;3.90;;;;;;;24.84;50.45;100536.29;2194451;79;20990;-69
2022/08/29 08:55:06;;;;;;;8.65;4.37;;;;;;;25.21;49.63;100532.98;2190011;80;21063;-73
2022/08/29 08:58:25;;;;;;;7.72;4.00;;;;;;;25.20;49.03;100525.37;2186421;80;21031;-70
2022/08/29 09:01:42;;;;;;;9.28;4.17;;;;;;;25.05;49.01;100523.24;2189077;80;20967;-69
2022/08/29 09:04:57;;;;;;;11.40;4.20;;;;;;;24.91;49.36;100516.55;2196554;79;20964;-70
2022/08/29 09:08:25;;;;;;;10.63;3.65;;;;;;;24.86;48.70;100525.98;2168442;80;21034;-70
2022/08/29 09:11:53;;;;;;;7.55;4.45;;;;;;;24.80;49.22;100527.80;2193378;79;21030;-69
2022/08/29 09:15:00;;;;;;;6.95;4.00;;;;;;;25.04;48.93;100515.37;2196260;79;20987;-69
2022/08/29 09:18:12;;;;;;;8.20;4.70;;;;;;;25.15;49.59;100527.20;2186987;80;20991;-70
2022/08/29 09:21:17;;;;;;;9.68;4.60;;;;;;;24.91;47.36;100515.20;2175546;80;21010;-69
2022/08/29 09:24:30;;;;;;;6.42;3.95;;;;;;;24.76;48.35;100523.16;2195422;80;21017;-69
2022/08/29 09:27:33;;;;;;;7.30;4.20;;;;;;;24.92;48.33;100518.22;2193123;79;21003;-69
2022/08/29 09:30:38;;;;;;;7.87;3.80;;;;;;;24.87;48.09;100529.00;2195513;80;21011;-70
2022/08/29 09:33:44;;;;;;;4.85;3.20;;;;;;;24.71;47.75;100533.39;2193407;80;20950;-69
2022/08/29 09:36:51;;;;;;;9.40;4.45;;;;;;;24.70;47.65;100520.91;2196067;80;20995;-72
2022/08/29 09:40:12;;;;;;;8.28;4.28;;;;;;;24.75;46.66;100521.49;2172789;79;21496;-69
2022/08/29 09:43:24;;;;;;;6.60;4.10;;;;;;;24.68;47.37;100524.94;2197441;80;20952;-69
2022/08/29 09:46:25;;;;;;;9.08;4.33;;;;;;;24.65;46.38;100526.26;2191786;80;20977;-69
2022/08/29 09:49:26;;;;;;;9.05;4.47;;;;;;;24.43;47.22;100529.42;2202674;79;21460;-70
2022/08/29 09:52:28;;;;;;;9.25;4.20;;;;;;;24.55;47.28;100532.88;2197893;79;20925;-69
2022/08/29 09:55:43;;;;;;;6.95;3.85;;;;;;;24.74;47.20;100523.93;2190630;80;20986;-74
2022/08/29 09:58:44;;;;;;;9.55;4.72;;;;;;;24.75;46.95;100522.84;2193726;79;20951;-68
2022/08/29 10:01:46;;;;;;;10.10;3.98;;;;;;;24.87;47.31;100525.47;2170214;80;21017;-69
2022/08/29 10:05:00;;;;;;;8.28;3.60;;;;;;;25.14;47.04;100526.36;2203135;79;21029;-72
2022/08/29 10:08:05;;;;;;;8.85;3.58;;;;;;;25.39;47.26;100525.02;2193823;79;20998;-69
2022/08/29 10:11:20;;;;;;;6.97;3.75;;;;;;;25.60;45.81;100522.00;2196084;79;21000;-69
2022/08/29 10:14:44;;;;;;;6.75;3.70;;;;;;;25.44;45.31;100525.89;2179080;79;20994;-69
2022/08/29 10:18:20;;;;;;;12.23;3.52;;;;;;;25.39;45.94;100528.55;2198541;79;21563;-70
2022/08/29 10:21:51;;;;;;;8.35;4.05;;;;;;;25.46;44.79;100529.19;2172380;79;21502;-70
2022/08/29 10:25:00;;;;;;;9.20;3.95;;;;;;;25.34;45.18;100529.88;2189413;80;20967;-68
2022/08/29 10:28:22;;;;;;;9.38;4.28;;;;;;;25.11;44.84;100528.20;2197161;80;21058;-72
2022/08/29 10:31:51;;;;;;;5.60;3.30;;;;;;;25.01;45.47;100522.66;2202019;79;21549;-69
2022/08/29 10:35:31;;;;;;;9.70;3.87;;;;;;;25.18;45.36;100522.63;2194697;80;21010;-69
2022/08/29 10:38:38;;;;;;;7.75;3.42;;;;;;;25.43;45.63;100510.69;2194041;79;21005;-69
2022/08/29 10:41:59;;;;;;;8.50;3.42;;;;;;;25.43;45.63;100510.69;2198944;80;20969;-69
2022/08/29 10:45:18;;;;;;;11.12;3.72;;;;;;;25.53;44.96;100522.73;2196320;79;21421;-70
2022/08/29 10:48:29;;;;;;;8.70;3.33;;;;;;;25.48;44.37;100513.46;2186958;80;20944;-69
2022/08/29 10:51:56;;;;;;;6.27;3.43;;;;;;;25.49;44.90;100523.78;2193198;80;20998;-69
2022/08/29 10:55:21;;;;;;;8.33;3.25;;;;;;;25.53;45.32;100520.01;2194158;79;21515;-70
2022/08/29 10:59:01;;;;;;;8.03;3.70;;;;;;;25.56;43.87;100527.64;2194772;80;20975;-69
2022/08/29 11:02:29;;;;;;;13.00;3.83;;;;;;;25.58;45.60;100524.14;2035101;85;21512;-72
2022/08/29 11:05:41;;;;;;;8.55;3.42;;;;;;;25.79;44.83;100517.84;2046670;81;21028;-69
2022/08/29 11:09:08;;;;;;;9.55;3.83;;;;;;;25.67;44.78;100519.33;2197387;80;20991;-69
2022/08/29 11:12:50;;;;;;;8.60;3.25;;;;;;;25.23;45.26;100514.00;2192495;80;20982;-69
2022/08/29 11:16:02;;;;;;;7.37;3.70;;;;;;;25.04;44.67;100514.83;2188847;79;21449;-69
2022/08/29 11:19:27;;;;;;;7.70;3.67;;;;;;;24.83;45.74;100516.48;2193095;80;21002;-69
2022/08/29 11:22:38;;;;;;;8.83;3.40;;;;;;;24.75;45.72;100513.35;2194046;79;21524;-70
2022/08/29 11:25:41;;;;;;;8.35;3.67;;;;;;;24.53;45.66;100522.30;2188319;80;21523;-70
2022/08/29 11:29:02;;;;;;;8.03;3.70;;;;;;;24.53;45.80;100511.45;2190727;80;21034;-69
2022/08/29 11:32:15;;;;;;;9.03;3.20;;;;;;;24.68;46.17;100517.61;2197549;80;21533;-69
2022/08/29 11:35:27;;;;;;;11.93;3.77;;;;;;;25.05;46.46;100509.67;2150106;80;20954;-68
2022/08/29 11:38:44;;;;;;;6.12;3.25;;;;;;;25.27;45.52;100512.95;2194600;80;21445;-71
2022/08/29 11:41:56;;;;;;;6.72;3.40;;;;;;;25.39;45.23;100513.61;2197863;80;20955;-69
2022/08/29 11:45:00;;;;;;;7.85;2.98;;;;;;;25.50;45.34;100517.27;2192811;80;20994;-69
2022/08/29 11:48:21;;;;;;;8.63;2.90;;;;;;;25.59;44.61;100524.41;2199270;79;20938;-70
2022/08/29 11:51:41;;;;;;;8.33;3.40;;;;;;;25.33;44.58;100522.78;2191221;80;21001;-73
2022/08/29 11:54:57;;;;;;;5.05;3.12;;;;;;;25.24;45.27;100518.89;2146904;82;21494;-72
2022/08/29 11:58:06;;;;;;;6.28;2.90;;;;;;;25.19;45.10;100512.04;2159817;81;21010;-70
2022/08/29 12:01:44;;;;;;;5.67;2.98;;;;;;;25.10;44.75;100512.18;2160807;81;21656;-68
2022/08/29 12:05:07;;;;;;;5.92;3.52;;;;;;;24.98;45.37;100521.27;2169263;80;21422;-69
2022/08/29 12:08:16;;;;;;;6.47;3.30;;;;;;;24.96;44.79;100514.45;2150577;82;20943;-69
2022/08/29 12:11:17;;;;;;;7.33;3.10;;;;;;;24.87;45.40;100510.00;2123835;83;20980;-72
2022/08/29 12:14:39;;;;;;;6.00;2.83;;;;;;;24.99;45.86;100512.05;2101008;83;20967;-69
2022/08/29 12:17:43;;;;;;;5.30;2.87;;;;;;;25.04;45.46;100513.47;2156630;81;21016;-69
2022/08/29 12:20:49;;;;;;;5.17;2.92;;;;;;;25.11;45.73;100509.73;2154212;81;20971;-69
2022/08/29 12:23:50;;;;;;;7.50;3.12;;;;;;;25.13;45.53;100514.38;2154043;82;20965;-69
2022/08/29 12:26:51;;;;;;;9.68;3.33;;;;;;;25.12;45.90;100511.40;2152734;82;20991;-69
2022/08/29 12:29:53;;;;;;;7.92;2.98;;;;;;;25.24;45.62;100502.05;2144967;81;21074;-68
2022/08/29 12:33:15;;;;;;;7.80;3.10;;;;;;;25.20;45.52;100496.02;2145313;81;21022;-70
2022/08/29 12:36:24;;;;;;;8.73;3.10;;;;;;;25.15;45.78;100491.91;2145377;81;21462;-70
2022/08/29 12:40:07;;;;;;;9.73;3.33;;;;;;;25.09;45.58;100495.08;2193185;79;20967;-69
2022/08/29 12:43:33;;;;;;;8.50;3.50;;;;;;;25.05;45.83;100489.85;2196216;79;20998;-69
2022/08/29 12:46:40;;;;;;;8.35;3.12;;;;;;;24.93;45.79;100498.13;2189941;79;20976;-71
2022/08/29 12:49:54;;;;;;;8.05;2.95;;;;;;;24.92;45.89;100495.14;2192953;79;20955;-68
2022/08/29 12:53:18;;;;;;;7.75;2.83;;;;;;;24.83;45.20;100490.70;2191123;80;21026;-69
2022/08/29 12:56:21;;;;;;;8.15;3.30;;;;;;;24.70;45.41;100496.48;2195560;79;21413;-69
2022/08/29 12:59:22;;;;;;;7.37;3.37;;;;;;;24.65;45.55;100494.24;2175406;80;21072;-68
2022/08/29 13:02:33;;;;;;;5.37;2.80;;;;;;;24.66;45.94;100486.38;2192136;80;21073;-68
2022/08/29 13:05:38;;;;;;;8.80;2.98;;;;;;;24.65;45.65;100486.92;2202969;79;20986;-68
2022/08/29 13:08:40;;;;;;;5.28;2.80;;;;;;;24.68;45.75;100478.27;2203667;79;20956;-68
2022/08/29 13:11:41;;;;;;;6.65;3.20;;;;;;;24.62;46.11;100486.61;2191120;79;21033;-67
2022/08/29 13:15:05;;;;;;;7.00;3.10;;;;;;;24.69;46.31;100484.52;2192711;80;21510;-69
2022/08/29 13:18:12;;;;;;;9.30;3.30;;;;;;;24.59;46.11;100492.81;2196990;80;21006;-68
2022/08/29 13:21:30;;;;;;;6.95;3.10;;;;;;;24.62;46.46;100482.00;2183878;80;21039;-68
2022/08/29 13:24:32;;;;;;;5.50;2.70;;;;;;;24.73;46.34;100472.92;2191851;79;20994;-67
2022/08/29 13:27:33;;;;;;;7.28;2.98;;;;;;;24.65;45.93;100468.47;2191794;79;21046;-68
2022/08/29 13:30:35;;;;;;;11.53;3.10;;;;;;;24.60;46.01;100470.57;2194528;80;21033;-70
2022/08/29 13:33:40;;;;;;;8.88;3.37;;;;;;;24.48;46.19;100478.82;2200238;79;20973;-68
2022/08/29 13:37:01;;;;;;;8.48;3.40;;;;;;;24.39;46.39;100466.73;2191020;79;20967;-67
2022/08/29 13:40:30;;;;;;;6.30;3.10;;;;;;;24.27;46.20;100464.65;2191384;80;21043;-67
2022/08/29 13:43:42;;;;;;;6.58;3.12;;;;;;;23.95;46.96;100462.55;2173177;80;20958;-72
2022/08/29 13:46:46;;;;;;;4.67;2.58;;;;;;;23.89;46.79;100462.19;2198531;79;20971;-67
2022/08/29 13:49:48;;;;;;;5.95;2.80;;;;;;;23.93;47.55;100463.32;2194572;79;21032;-68
2022/08/29 13:52:53;;;;;;;7.78;3.10;;;;;;;23.96;47.16;100460.11;2197556;80;21093;-68
2022/08/29 13:55:54;;;;;;;8.98;2.92;;;;;;;24.02;46.99;100457.80;2198070;79;21575;-68
2022/08/29 13:58:56;;;;;;;4.40;3.08;;;;;;;24.06;46.96;100454.86;2197440;80;20974;-70
2022/08/29 14:01:58;;;;;;;6.47;3.02;;;;;;;24.00;47.19;100453.15;2187084;80;21011;-69
2022/08/29 14:04:59;;;;;;;6.00;2.72;;;;;;;23.99;47.06;100454.73;2199872;80;21707;-67
2022/08/29 14:08:00;;;;;;;8.65;3.58;;;;;;;23.93;47.13;100456.03;2199159;79;21003;-68
2022/08/29 14:11:02;;;;;;;9.45;3.22;;;;;;;23.92;47.03;100457.63;2195367;80;21514;-68
2022/08/29 14:14:02;;;;;;;7.62;3.30;;;;;;;23.88;47.44;100455.13;2192638;80;21024;-67
2022/08/29 14:17:04;;;;;;;5.67;2.83;;;;;;;23.86;47.53;100457.27;2199471;80;21066;-68
2022/08/29 14:20:08;;;;;;;6.08;3.42;;;;;;;23.75;46.99;100457.63;2194313;79;20990;-67
2022/08/29 14:23:09;;;;;;;4.75;2.62;;;;;;;23.65;47.13;100450.13;2192473;80;20982;-67
2022/08/29 14:26:11;;;;;;;5.83;2.95;;;;;;;23.69;47.60;100454.52;2190229;79;21489;-68